Time;durP1;ratioP1;P1;durP2;ratioP2;P2;SDS_P1;SDS_P2;PMS_P1;PMS_P2;Temp;Humidity;BMP_temperature;BMP_pressure;BME280_temperature;BME280_humidity;BME280_pressure;Samples;Min_cycle;Max_cycle;Signal;HPM_P1;HPM_P2
2022/06/06 00:08:24;;;;;;;8.4;10.6;;;;;;;-133;82.6;65250;;;;
2022/06/06 00:19:24;;;;;;;8.4;10.6;;;;;;;-133;83.8;65250;;;;
2022/06/06 00:29:24;;;;;;;8.4;10.6;;;;;;;-133;84.6;65250;;;;
2022/06/06 00:40:24;;;;;;;8.8;10.2;;;;;;;-133;87.6;65260;;;;
2022/06/06 00:50:24;;;;;;;8.8;10.2;;;;;;;-133;88.4;65260;;;;
2022/06/06 01:00:24;;;;;;;8.8;10.2;;;;;;;-133;89.1;65260;;;;
2022/06/06 01:11:24;;;;;;;9.6;11.4;;;;;;;-133;93.2;65250;;;;
2022/06/06 01:22:24;;;;;;;9.6;11.4;;;;;;;-133;92.2;65260;;;;
2022/06/06 01:33:24;;;;;;;9.6;11.4;;;;;;;-133;92.7;65250;;;;
2022/06/06 01:44:24;;;;;;;10;11.8;;;;;;;-133;94.7;65260;;;;
2022/06/06 01:54:24;;;;;;;10;11.8;;;;;;;-133;94.4;65260;;;;
2022/06/06 02:05:24;;;;;;;10.1;11.6;;;;;;;-133;96.3;65250;;;;
2022/06/06 02:15:24;;;;;;;10.1;11.6;;;;;;;-133;96.9;65260;;;;
2022/06/06 02:25:24;;;;;;;10.1;11.6;;;;;;;-133;95.7;65260;;;;
2022/06/06 02:35:24;;;;;;;9.7;11.3;;;;;;;-133;96.8;65250;;;;
2022/06/06 02:46:24;;;;;;;9.7;11.3;;;;;;;-133;95.7;65250;;;;
2022/06/06 02:56:24;;;;;;;9.7;11.3;;;;;;;-133;95.6;65250;;;;
2022/06/06 03:07:24;;;;;;;11.2;12.7;;;;;;;-133;95.6;65260;;;;
2022/06/06 03:29:24;;;;;;;11.2;12.7;;;;;;;-133;93.8;65250;;;;
2022/06/06 03:39:24;;;;;;;11.1;12.6;;;;;;;-133;94.5;65250;;;;
2022/06/06 03:50:25;;;;;;;11.1;12.6;;;;;;;-133;93;65250;;;;
2022/06/06 04:00:24;;;;;;;11.1;12.6;;;;;;;-133;91.8;65250;;;;
2022/06/06 04:10:24;;;;;;;11.9;16.1;;;;;;;-133;90.1;65250;;;;
2022/06/06 04:20:24;;;;;;;11.9;16.1;;;;;;;-133;89.3;65250;;;;
2022/06/06 04:30:24;;;;;;;11.9;16.1;;;;;;;-133;87.8;65240;;;;
2022/06/06 04:41:24;;;;;;;11.7;15.2;;;;;;;-133;87;65240;;;;
2022/06/06 04:51:24;;;;;;;11.7;15.2;;;;;;;-133;85.7;65240;;;;
2022/06/06 05:02:24;;;;;;;11.7;15.2;;;;;;;-133;83;65240;;;;
2022/06/06 05:13:24;;;;;;;7.9;9.6;;;;;;;-133;79.6;65240;;;;
2022/06/06 05:23:25;;;;;;;7.9;9.6;;;;;;;-133;77.3;65240;;;;
2022/06/06 05:34:24;;;;;;;8.1;10.5;;;;;;;-133;75.1;65240;;;;
2022/06/06 05:44:24;;;;;;;8.1;10.5;;;;;;;-133;74.4;65240;;;;
2022/06/06 05:54:24;;;;;;;8.1;10.5;;;;;;;-133;72;65230;;;;
2022/06/06 06:05:24;;;;;;;8.3;12.4;;;;;;;-133;69.5;65230;;;;
2022/06/06 06:16:24;;;;;;;8.3;12.4;;;;;;;-133;68.1;65230;;;;
2022/06/06 06:27:24;;;;;;;8.3;12.4;;;;;;;-133;69.8;65230;;;;
2022/06/06 06:37:24;;;;;;;8.5;12.1;;;;;;;-133;68.4;65230;;;;
2022/06/06 06:48:24;;;;;;;8.5;12.1;;;;;;;-133;65.6;65230;;;;
2022/06/06 06:59:24;;;;;;;8.5;12.1;;;;;;;-133;65.8;65230;;;;
2022/06/06 07:09:24;;;;;;;7.3;10.1;;;;;;;-133;64.9;65230;;;;
2022/06/06 07:19:24;;;;;;;7.3;10.1;;;;;;;-133;62;65230;;;;
2022/06/06 07:29:25;;;;;;;7.3;10.1;;;;;;;-133;61.3;65230;;;;
2022/06/06 07:39:24;;;;;;;7.3;12.2;;;;;;;-133;58.4;65230;;;;
2022/06/06 07:50:24;;;;;;;7.3;12.2;;;;;;;-133;59.4;65220;;;;
2022/06/06 08:00:25;;;;;;;7.3;12.2;;;;;;;-133;56.8;65230;;;;
2022/06/06 08:11:24;;;;;;;6.6;12.3;;;;;;;-133;58.4;65230;;;;
2022/06/06 08:21:24;;;;;;;6.6;12.3;;;;;;;-133;58.5;65230;;;;
2022/06/06 08:31:24;;;;;;;6.6;12.3;;;;;;;-133;59.2;65230;;;;
2022/06/06 08:42:24;;;;;;;6.5;10.8;;;;;;;-133;56;65220;;;;
2022/06/06 08:52:24;;;;;;;6.5;10.8;;;;;;;-133;54.2;65230;;;;
2022/06/06 09:03:24;;;;;;;6.5;10.8;;;;;;;-133;52.7;65230;;;;
2022/06/06 09:14:24;;;;;;;5.7;7.9;;;;;;;-133;52.4;65220;;;;
2022/06/06 09:24:24;;;;;;;5.7;7.9;;;;;;;-133;51.9;65220;;;;
2022/06/06 09:35:24;;;;;;;5.6;9.2;;;;;;;-133;51.6;65220;;;;
2022/06/06 09:46:24;;;;;;;5.6;9.2;;;;;;;-133;46.8;65220;;;;
2022/06/06 10:06:24;;;;;;;4.6;6.6;;;;;;;-133;48.2;65230;;;;
2022/06/06 10:16:24;;;;;;;4.6;6.6;;;;;;;-133;46.7;65220;;;;
2022/06/06 10:27:24;;;;;;;4.6;6.6;;;;;;;-133;46.3;65220;;;;
2022/06/06 10:37:24;;;;;;;4.4;7.7;;;;;;;-133;49;65220;;;;
2022/06/06 10:48:25;;;;;;;4.4;7.7;;;;;;;-133;48.5;65220;;;;
2022/06/06 10:59:24;;;;;;;4.4;7.7;;;;;;;-133;47.7;65220;;;;
2022/06/06 11:09:24;;;;;;;4.9;7.6;;;;;;;-133;45.1;65220;;;;
2022/06/06 11:19:24;;;;;;;4.9;7.6;;;;;;;-133;46.3;65220;;;;
2022/06/06 11:29:25;;;;;;;4.9;7.6;;;;;;;-133;46.1;65220;;;;
2022/06/06 11:39:25;;;;;;;4.3;6.3;;;;;;;-133;42.6;65220;;;;
2022/06/06 11:50:24;;;;;;;4.3;6.3;;;;;;;-133;40.7;65220;;;;
2022/06/06 12:00:24;;;;;;;4.3;6.3;;;;;;;-133;40.3;65230;;;;
2022/06/06 12:10:24;;;;;;;4.3;6.4;;;;;;;-133;38.2;65220;;;;
2022/06/06 12:20:24;;;;;;;4.3;6.4;;;;;;;-133;39.3;65220;;;;
2022/06/06 12:31:24;;;;;;;4.3;6.4;;;;;;;-133;39.5;65220;;;;
2022/06/06 12:41:24;;;;;;;3.7;5.9;;;;;;;-133;38;65220;;;;
2022/06/06 12:51:25;;;;;;;3.7;5.9;;;;;;;-133;36.3;65220;;;;
2022/06/06 13:02:24;;;;;;;3.7;5.9;;;;;;;-133;37.7;65220;;;;
2022/06/06 13:13:24;;;;;;;3.6;5.8;;;;;;;-133;36.3;65220;;;;
2022/06/06 13:23:24;;;;;;;3.6;5.8;;;;;;;-133;35.1;65220;;;;
2022/06/06 13:34:24;;;;;;;3.6;5.8;;;;;;;-133;33.5;65220;;;;
2022/06/06 13:44:24;;;;;;;3.3;5.4;;;;;;;-133;34.4;65220;;;;
2022/06/06 13:54:24;;;;;;;3.3;5.4;;;;;;;-133;33.5;65220;;;;
2022/06/06 14:05:24;;;;;;;3.3;5.6;;;;;;;-133;34.7;65220;;;;
2022/06/06 14:15:24;;;;;;;3.3;5.6;;;;;;;-133;34.1;65220;;;;
2022/06/06 14:26:24;;;;;;;3.3;5.6;;;;;;;-133;35.3;65230;;;;
2022/06/06 14:36:27;;;;;;;3.4;6.1;;;;;;;-133;32.3;65230;;;;
2022/06/06 14:46:24;;;;;;;3.4;6.1;;;;;;;-133;33.1;65230;;;;
2022/06/06 14:57:25;;;;;;;3.4;6.1;;;;;;;-133;35.4;65230;;;;
2022/06/06 15:07:24;;;;;;;9.2;21.1;;;;;;;-133;34.8;65230;;;;
2022/06/06 15:18:27;;;;;;;9.2;21.1;;;;;;;-133;38.7;65230;;;;
2022/06/06 15:28:24;;;;;;;9.2;21.1;;;;;;;-133;55.6;65240;;;;
2022/06/06 15:39:24;;;;;;;4.8;9;;;;;;;-133;58.9;65240;;;;
2022/06/06 15:50:26;;;;;;;4.8;9;;;;;;;-133;62.2;65240;;;;
2022/06/06 16:00:24;;;;;;;4.8;9;;;;;;;-133;62.9;65240;;;;
2022/06/06 16:11:24;;;;;;;43.2;85.5;;;;;;;-133;64.3;65240;;;;
2022/06/06 16:21:24;;;;;;;43.2;85.5;;;;;;;-133;65.1;65240;;;;
2022/06/06 16:32:25;;;;;;;43.2;85.5;;;;;;;-133;64.3;65240;;;;
2022/06/06 16:53:24;;;;;;;10.3;31.7;;;;;;;-133;66.4;65250;;;;
2022/06/06 17:03:24;;;;;;;10.3;31.7;;;;;;;-133;67.3;65250;;;;
2022/06/06 17:13:24;;;;;;;2.9;5.9;;;;;;;-133;67.7;65250;;;;
2022/06/06 17:23:24;;;;;;;2.9;5.9;;;;;;;-133;68;65250;;;;
2022/06/06 17:34:26;;;;;;;2.9;5.9;;;;;;;-133;68.5;65250;;;;
2022/06/06 17:44:24;;;;;;;2.5;5.5;;;;;;;-133;69.5;65250;;;;
2022/06/06 17:54:24;;;;;;;2.5;5.5;;;;;;;-133;70.4;65250;;;;
2022/06/06 18:05:24;;;;;;;3.7;6.5;;;;;;;-133;71.4;65250;;;;
2022/06/06 18:15:24;;;;;;;3.7;6.5;;;;;;;-133;72.5;65250;;;;
2022/06/06 18:26:24;;;;;;;3.7;6.5;;;;;;;-133;73.4;65250;;;;
2022/06/06 18:37:24;;;;;;;6;9.6;;;;;;;-133;73.3;65240;;;;
2022/06/06 18:47:24;;;;;;;6;9.6;;;;;;;-133;75.3;65240;;;;
2022/06/06 18:57:25;;;;;;;6;9.6;;;;;;;-133;76.2;65250;;;;
2022/06/06 19:08:24;;;;;;;5.9;10.2;;;;;;;-133;76.7;65240;;;;
2022/06/06 19:18:28;;;;;;;5.9;10.2;;;;;;;-133;77.7;65240;;;;
2022/06/06 19:28:25;;;;;;;5.9;10.2;;;;;;;-133;78.1;65240;;;;
2022/06/06 19:39:31;;;;;;;7.4;10.4;;;;;;;-133;79.3;65240;;;;
2022/06/06 19:49:24;;;;;;;7.4;10.4;;;;;;;-133;79.8;65240;;;;
2022/06/06 19:59:25;;;;;;;7.4;10.4;;;;;;;-133;79.9;65240;;;;
2022/06/06 20:10:25;;;;;;;5.7;8;;;;;;;-133;80.4;65240;;;;
2022/06/06 20:20:24;;;;;;;5.7;8;;;;;;;-133;80.8;65240;;;;
2022/06/06 20:32:28;;;;;;;5.7;8;;;;;;;-133;81.7;65240;;;;
2022/06/06 20:42:24;;;;;;;5.3;9.2;;;;;;;-133;82.3;65240;;;;
2022/06/06 20:48:57;;;;;;;5.3;9.2;;;;;;;-133;82.5;65240;;;;
2022/06/06 20:59:57;;;;;;;5.3;9.2;;;;;;;-133;83.9;65240;;;;
2022/06/06 21:10:57;;;;;;;7.1;11.4;;;;;;;-133;84.1;65240;;;;
2022/06/06 21:20:57;;;;;;;7.1;11.4;;;;;;;-133;83.4;65240;;;;
2022/06/06 21:30:57;;;;;;;7.1;11.4;;;;;;;-133;83.2;65230;;;;
2022/06/06 21:41:57;;;;;;;6.4;8.8;;;;;;;-133;84;65240;;;;
2022/06/06 21:51:57;;;;;;;6.4;8.8;;;;;;;-133;84;65240;;;;
2022/06/06 22:02:57;;;;;;;6.4;8.8;;;;;;;-133;83.9;65240;;;;
2022/06/06 22:13:57;;;;;;;6.9;10.5;;;;;;;-133;83.9;65230;;;;
2022/06/06 22:24:58;;;;;;;6.9;10.5;;;;;;;-133;84.4;65230;;;;
2022/06/06 22:34:57;;;;;;;6.9;10.5;;;;;;;-133;85.6;65230;;;;
2022/06/06 22:44:57;;;;;;;6.4;8.9;;;;;;;-133;86.2;65240;;;;
2022/06/06 22:55:57;;;;;;;6.4;8.9;;;;;;;-133;86.5;65230;;;;
2022/06/06 23:05:57;;;;;;;8.5;10.5;;;;;;;-133;87.1;65230;;;;
2022/06/06 23:15:57;;;;;;;8.5;10.5;;;;;;;-133;87.8;65230;;;;
2022/06/06 23:25:57;;;;;;;8.5;10.5;;;;;;;-133;88.4;65230;;;;
2022/06/06 23:35:57;;;;;;;8.9;12;;;;;;;-133;89.4;65230;;;;
2022/06/06 23:48:01;;;;;;;8.9;12;;;;;;;-133;90.7;65230;;;;
2022/06/06 23:57:13;;;;;;;8.9;12;;;;;;;-133;91.5;65230;;;;
